sensor_id;sensor_type;location;lat;lon;timestamp;P1;durP1;ratioP1;P2;durP2;ratioP2
28022;SDS011;67403;50.104;8.758;2023-06-26T00:01:09;12.02;;;8.75;;
28022;SDS011;67403;50.104;8.758;2023-06-26T00:03:36;12.07;;;7.97;;
28022;SDS011;67403;50.104;8.758;2023-06-26T00:06:04;12.35;;;8.43;;
28022;SDS011;67403;50.104;8.758;2023-06-26T00:08:31;12.43;;;8.93;;
28022;SDS011;67403;50.104;8.758;2023-06-26T00:10:58;11.35;;;8.50;;
28022;SDS011;67403;50.104;8.758;2023-06-26T00:13:25;12.15;;;8.27;;
28022;SDS011;67403;50.104;8.758;2023-06-26T00:15:53;10.80;;;7.70;;
28022;SDS011;67403;50.104;8.758;2023-06-26T00:18:21;14.57;;;9.15;;
28022;SDS011;67403;50.104;8.758;2023-06-26T00:20:49;12.73;;;8.60;;
28022;SDS011;67403;50.104;8.758;2023-06-26T00:23:16;12.52;;;8.30;;
28022;SDS011;67403;50.104;8.758;2023-06-26T00:25:44;12.02;;;7.88;;
28022;SDS011;67403;50.104;8.758;2023-06-26T00:28:11;11.43;;;7.47;;
28022;SDS011;67403;50.104;8.758;2023-06-26T00:30:38;9.95;;;7.57;;
28022;SDS011;67403;50.104;8.758;2023-06-26T00:33:05;13.25;;;7.13;;
28022;SDS011;67403;50.104;8.758;2023-06-26T00:35:34;9.70;;;7.28;;
28022;SDS011;67403;50.104;8.758;2023-06-26T00:38:01;11.90;;;7.53;;
28022;SDS011;67403;50.104;8.758;2023-06-26T00:40:28;13.02;;;8.10;;
28022;SDS011;67403;50.104;8.758;2023-06-26T00:42:56;9.63;;;6.40;;
28022;SDS011;67403;50.104;8.758;2023-06-26T00:45:23;12.00;;;8.63;;
28022;SDS011;67403;50.104;8.758;2023-06-26T00:47:50;13.70;;;9.02;;
28022;SDS011;67403;50.104;8.758;2023-06-26T00:50:18;12.02;;;8.50;;
28022;SDS011;67403;50.104;8.758;2023-06-26T00:52:46;11.88;;;8.85;;
28022;SDS011;67403;50.104;8.758;2023-06-26T00:55:14;12.35;;;8.73;;
28022;SDS011;67403;50.104;8.758;2023-06-26T00:57:41;11.88;;;7.85;;
28022;SDS011;67403;50.104;8.758;2023-06-26T01:00:11;10.38;;;7.93;;
28022;SDS011;67403;50.104;8.758;2023-06-26T01:02:38;11.05;;;7.13;;
28022;SDS011;67403;50.104;8.758;2023-06-26T01:05:06;12.50;;;8.57;;
28022;SDS011;67403;50.104;8.758;2023-06-26T01:07:38;11.30;;;7.90;;
28022;SDS011;67403;50.104;8.758;2023-06-26T01:10:07;10.68;;;7.57;;
28022;SDS011;67403;50.104;8.758;2023-06-26T01:12:34;9.50;;;7.30;;
28022;SDS011;67403;50.104;8.758;2023-06-26T01:15:04;10.00;;;7.72;;
28022;SDS011;67403;50.104;8.758;2023-06-26T01:17:31;10.73;;;8.10;;
28022;SDS011;67403;50.104;8.758;2023-06-26T01:19:59;11.88;;;7.72;;
28022;SDS011;67403;50.104;8.758;2023-06-26T01:22:29;11.40;;;8.15;;
28022;SDS011;67403;50.104;8.758;2023-06-26T01:25:02;10.63;;;7.05;;
28022;SDS011;67403;50.104;8.758;2023-06-26T01:27:31;11.32;;;7.75;;
28022;SDS011;67403;50.104;8.758;2023-06-26T01:29:59;10.70;;;7.80;;
28022;SDS011;67403;50.104;8.758;2023-06-26T01:32:27;11.60;;;7.82;;
28022;SDS011;67403;50.104;8.758;2023-06-26T01:34:55;13.25;;;7.97;;
28022;SDS011;67403;50.104;8.758;2023-06-26T01:37:22;9.88;;;7.47;;
28022;SDS011;67403;50.104;8.758;2023-06-26T01:39:50;11.40;;;8.27;;
28022;SDS011;67403;50.104;8.758;2023-06-26T01:42:17;11.27;;;8.50;;
28022;SDS011;67403;50.104;8.758;2023-06-26T01:44:45;11.63;;;8.90;;
28022;SDS011;67403;50.104;8.758;2023-06-26T01:47:14;10.23;;;7.22;;
28022;SDS011;67403;50.104;8.758;2023-06-26T01:52:12;12.60;;;7.53;;
28022;SDS011;67403;50.104;8.758;2023-06-26T01:54:43;10.25;;;7.53;;
28022;SDS011;67403;50.104;8.758;2023-06-26T01:57:13;11.38;;;7.93;;
28022;SDS011;67403;50.104;8.758;2023-06-26T01:59:41;11.38;;;8.10;;
28022;SDS011;67403;50.104;8.758;2023-06-26T02:02:10;13.38;;;7.80;;
28022;SDS011;67403;50.104;8.758;2023-06-26T02:04:37;12.15;;;7.60;;
28022;SDS011;67403;50.104;8.758;2023-06-26T02:07:05;11.10;;;7.65;;
28022;SDS011;67403;50.104;8.758;2023-06-26T02:09:34;12.60;;;7.75;;
28022;SDS011;67403;50.104;8.758;2023-06-26T02:12:02;9.25;;;7.03;;
28022;SDS011;67403;50.104;8.758;2023-06-26T02:14:29;11.02;;;7.95;;
28022;SDS011;67403;50.104;8.758;2023-06-26T02:16:56;9.10;;;7.22;;
28022;SDS011;67403;50.104;8.758;2023-06-26T02:19:25;10.40;;;7.82;;
28022;SDS011;67403;50.104;8.758;2023-06-26T02:21:52;10.10;;;7.03;;
28022;SDS011;67403;50.104;8.758;2023-06-26T02:24:20;11.10;;;7.38;;
28022;SDS011;67403;50.104;8.758;2023-06-26T02:26:47;10.30;;;7.82;;
28022;SDS011;67403;50.104;8.758;2023-06-26T02:29:15;12.65;;;8.60;;
28022;SDS011;67403;50.104;8.758;2023-06-26T02:31:42;11.60;;;7.75;;
28022;SDS011;67403;50.104;8.758;2023-06-26T02:34:10;12.18;;;8.30;;
28022;SDS011;67403;50.104;8.758;2023-06-26T02:36:38;11.90;;;7.85;;
28022;SDS011;67403;50.104;8.758;2023-06-26T02:39:05;13.40;;;7.80;;
28022;SDS011;67403;50.104;8.758;2023-06-26T02:41:33;11.07;;;8.30;;
28022;SDS011;67403;50.104;8.758;2023-06-26T02:44:00;11.07;;;7.40;;
28022;SDS011;67403;50.104;8.758;2023-06-26T02:46:27;10.93;;;7.95;;
28022;SDS011;67403;50.104;8.758;2023-06-26T02:48:54;11.75;;;8.20;;
28022;SDS011;67403;50.104;8.758;2023-06-26T02:51:22;13.52;;;8.20;;
28022;SDS011;67403;50.104;8.758;2023-06-26T02:53:50;15.15;;;8.10;;
28022;SDS011;67403;50.104;8.758;2023-06-26T02:56:17;13.85;;;8.85;;
28022;SDS011;67403;50.104;8.758;2023-06-26T02:58:45;11.80;;;8.20;;
28022;SDS011;67403;50.104;8.758;2023-06-26T03:01:12;11.43;;;8.35;;
28022;SDS011;67403;50.104;8.758;2023-06-26T03:06:07;13.63;;;8.93;;
28022;SDS011;67403;50.104;8.758;2023-06-26T03:08:36;12.35;;;8.77;;
28022;SDS011;67403;50.104;8.758;2023-06-26T03:11:05;13.23;;;8.05;;
28022;SDS011;67403;50.104;8.758;2023-06-26T03:13:32;13.35;;;8.25;;
28022;SDS011;67403;50.104;8.758;2023-06-26T03:15:59;12.50;;;8.70;;
28022;SDS011;67403;50.104;8.758;2023-06-26T03:18:27;11.40;;;8.23;;
28022;SDS011;67403;50.104;8.758;2023-06-26T03:20:54;13.02;;;8.30;;
28022;SDS011;67403;50.104;8.758;2023-06-26T03:23:22;10.55;;;8.35;;
28022;SDS011;67403;50.104;8.758;2023-06-26T03:25:49;12.70;;;9.18;;
28022;SDS011;67403;50.104;8.758;2023-06-26T03:28:18;11.60;;;8.52;;
28022;SDS011;67403;50.104;8.758;2023-06-26T03:30:45;13.02;;;8.85;;
28022;SDS011;67403;50.104;8.758;2023-06-26T03:33:13;13.18;;;9.27;;
28022;SDS011;67403;50.104;8.758;2023-06-26T03:35:40;14.18;;;8.68;;
28022;SDS011;67403;50.104;8.758;2023-06-26T03:38:07;14.48;;;9.18;;
28022;SDS011;67403;50.104;8.758;2023-06-26T03:40:34;11.80;;;8.63;;
28022;SDS011;67403;50.104;8.758;2023-06-26T03:43:01;12.85;;;9.35;;
28022;SDS011;67403;50.104;8.758;2023-06-26T03:45:30;12.27;;;8.75;;
28022;SDS011;67403;50.104;8.758;2023-06-26T03:47:57;11.65;;;8.77;;
28022;SDS011;67403;50.104;8.758;2023-06-26T03:50:25;12.52;;;8.57;;
28022;SDS011;67403;50.104;8.758;2023-06-26T03:52:52;14.30;;;8.95;;
28022;SDS011;67403;50.104;8.758;2023-06-26T03:55:20;14.25;;;8.75;;
28022;SDS011;67403;50.104;8.758;2023-06-26T03:57:47;13.75;;;9.10;;
28022;SDS011;67403;50.104;8.758;2023-06-26T04:00:15;13.13;;;8.38;;
28022;SDS011;67403;50.104;8.758;2023-06-26T04:02:44;15.32;;;8.88;;
28022;SDS011;67403;50.104;8.758;2023-06-26T04:05:11;13.13;;;9.52;;
28022;SDS011;67403;50.104;8.758;2023-06-26T04:07:39;14.07;;;8.70;;
28022;SDS011;67403;50.104;8.758;2023-06-26T04:10:07;12.73;;;9.13;;
28022;SDS011;67403;50.104;8.758;2023-06-26T04:12:34;11.60;;;8.68;;
28022;SDS011;67403;50.104;8.758;2023-06-26T04:15:02;12.27;;;8.25;;
28022;SDS011;67403;50.104;8.758;2023-06-26T04:17:29;14.93;;;8.80;;
28022;SDS011;67403;50.104;8.758;2023-06-26T04:19:57;13.43;;;9.07;;
28022;SDS011;67403;50.104;8.758;2023-06-26T04:22:25;12.57;;;9.13;;
28022;SDS011;67403;50.104;8.758;2023-06-26T04:24:52;13.10;;;8.50;;
28022;SDS011;67403;50.104;8.758;2023-06-26T04:27:20;15.10;;;9.52;;
28022;SDS011;67403;50.104;8.758;2023-06-26T04:29:47;15.32;;;8.63;;
28022;SDS011;67403;50.104;8.758;2023-06-26T04:32:14;13.98;;;9.38;;
28022;SDS011;67403;50.104;8.758;2023-06-26T04:34:41;14.15;;;9.48;;
28022;SDS011;67403;50.104;8.758;2023-06-26T04:37:14;12.35;;;9.43;;
28022;SDS011;67403;50.104;8.758;2023-06-26T04:39:42;15.37;;;8.87;;
28022;SDS011;67403;50.104;8.758;2023-06-26T04:42:09;11.05;;;8.75;;
28022;SDS011;67403;50.104;8.758;2023-06-26T04:44:37;11.48;;;8.07;;
28022;SDS011;67403;50.104;8.758;2023-06-26T04:47:06;11.90;;;8.30;;
28022;SDS011;67403;50.104;8.758;2023-06-26T04:49:33;11.90;;;8.65;;
28022;SDS011;67403;50.104;8.758;2023-06-26T04:52:01;11.70;;;8.45;;
28022;SDS011;67403;50.104;8.758;2023-06-26T04:54:29;12.38;;;9.18;;
28022;SDS011;67403;50.104;8.758;2023-06-26T04:56:57;13.55;;;8.73;;
28022;SDS011;67403;50.104;8.758;2023-06-26T04:59:25;11.43;;;8.05;;
28022;SDS011;67403;50.104;8.758;2023-06-26T05:01:52;14.70;;;8.90;;
28022;SDS011;67403;50.104;8.758;2023-06-26T05:04:19;14.38;;;8.43;;
28022;SDS011;67403;50.104;8.758;2023-06-26T05:06:48;13.48;;;7.80;;
28022;SDS011;67403;50.104;8.758;2023-06-26T05:09:15;14.50;;;8.35;;
28022;SDS011;67403;50.104;8.758;2023-06-26T05:11:43;11.48;;;8.20;;
28022;SDS011;67403;50.104;8.758;2023-06-26T05:14:11;12.68;;;7.93;;
28022;SDS011;67403;50.104;8.758;2023-06-26T05:16:38;11.38;;;8.20;;
28022;SDS011;67403;50.104;8.758;2023-06-26T05:19:06;12.10;;;7.82;;
28022;SDS011;67403;50.104;8.758;2023-06-26T05:21:33;12.57;;;7.93;;
28022;SDS011;67403;50.104;8.758;2023-06-26T05:24:01;13.45;;;8.57;;
28022;SDS011;67403;50.104;8.758;2023-06-26T05:26:29;12.50;;;8.48;;
28022;SDS011;67403;50.104;8.758;2023-06-26T05:28:59;10.60;;;7.68;;
28022;SDS011;67403;50.104;8.758;2023-06-26T05:31:26;15.75;;;7.93;;
28022;SDS011;67403;50.104;8.758;2023-06-26T05:33:53;14.52;;;9.13;;
28022;SDS011;67403;50.104;8.758;2023-06-26T05:36:22;12.75;;;8.07;;
28022;SDS011;67403;50.104;8.758;2023-06-26T05:38:51;12.35;;;7.63;;
28022;SDS011;67403;50.104;8.758;2023-06-26T05:41:19;12.32;;;7.50;;
28022;SDS011;67403;50.104;8.758;2023-06-26T05:43:46;13.13;;;8.02;;
28022;SDS011;67403;50.104;8.758;2023-06-26T05:46:14;11.50;;;7.43;;
28022;SDS011;67403;50.104;8.758;2023-06-26T05:48:42;12.07;;;7.25;;
28022;SDS011;67403;50.104;8.758;2023-06-26T05:51:09;13.50;;;7.88;;
28022;SDS011;67403;50.104;8.758;2023-06-26T05:53:37;11.07;;;7.72;;
28022;SDS011;67403;50.104;8.758;2023-06-26T05:56:04;11.43;;;7.28;;
28022;SDS011;67403;50.104;8.758;2023-06-26T05:58:31;12.70;;;7.22;;
28022;SDS011;67403;50.104;8.758;2023-06-26T06:00:59;11.55;;;7.82;;
28022;SDS011;67403;50.104;8.758;2023-06-26T06:03:28;10.18;;;6.93;;
28022;SDS011;67403;50.104;8.758;2023-06-26T06:05:55;12.00;;;7.20;;
28022;SDS011;67403;50.104;8.758;2023-06-26T06:08:22;13.02;;;6.72;;
28022;SDS011;67403;50.104;8.758;2023-06-26T06:10:50;11.18;;;7.22;;
28022;SDS011;67403;50.104;8.758;2023-06-26T06:13:17;11.80;;;6.93;;
28022;SDS011;67403;50.104;8.758;2023-06-26T06:15:44;14.70;;;7.22;;
28022;SDS011;67403;50.104;8.758;2023-06-26T06:18:11;10.65;;;7.30;;
28022;SDS011;67403;50.104;8.758;2023-06-26T06:20:40;10.80;;;6.13;;
28022;SDS011;67403;50.104;8.758;2023-06-26T06:23:07;12.57;;;6.53;;
28022;SDS011;67403;50.104;8.758;2023-06-26T06:25:34;9.93;;;6.50;;
28022;SDS011;67403;50.104;8.758;2023-06-26T06:28:02;9.90;;;6.78;;
28022;SDS011;67403;50.104;8.758;2023-06-26T06:30:29;10.70;;;6.72;;
28022;SDS011;67403;50.104;8.758;2023-06-26T06:32:57;11.15;;;6.97;;
28022;SDS011;67403;50.104;8.758;2023-06-26T06:35:24;9.20;;;6.57;;
28022;SDS011;67403;50.104;8.758;2023-06-26T06:37:53;9.70;;;6.30;;
28022;SDS011;67403;50.104;8.758;2023-06-26T06:40:20;8.85;;;6.40;;
28022;SDS011;67403;50.104;8.758;2023-06-26T06:42:48;10.60;;;6.82;;
28022;SDS011;67403;50.104;8.758;2023-06-26T06:45:15;11.48;;;6.43;;
28022;SDS011;67403;50.104;8.758;2023-06-26T06:47:42;9.48;;;6.10;;
28022;SDS011;67403;50.104;8.758;2023-06-26T06:50:09;8.45;;;6.68;;
28022;SDS011;67403;50.104;8.758;2023-06-26T06:52:37;10.57;;;6.43;;
28022;SDS011;67403;50.104;8.758;2023-06-26T06:55:07;9.63;;;6.57;;
28022;SDS011;67403;50.104;8.758;2023-06-26T06:57:35;8.82;;;6.93;;
28022;SDS011;67403;50.104;8.758;2023-06-26T07:00:03;11.50;;;6.78;;
28022;SDS011;67403;50.104;8.758;2023-06-26T07:02:32;10.75;;;6.38;;
28022;SDS011;67403;50.104;8.758;2023-06-26T07:04:59;10.30;;;7.40;;
28022;SDS011;67403;50.104;8.758;2023-06-26T07:07:28;10.02;;;7.07;;
28022;SDS011;67403;50.104;8.758;2023-06-26T07:09:56;16.83;;;6.25;;
28022;SDS011;67403;50.104;8.758;2023-06-26T07:12:25;11.20;;;7.18;;
28022;SDS011;67403;50.104;8.758;2023-06-26T07:14:52;9.60;;;6.63;;
28022;SDS011;67403;50.104;8.758;2023-06-26T07:17:20;9.77;;;6.55;;
28022;SDS011;67403;50.104;8.758;2023-06-26T07:19:47;9.60;;;7.18;;
28022;SDS011;67403;50.104;8.758;2023-06-26T07:22:14;10.38;;;6.82;;
28022;SDS011;67403;50.104;8.758;2023-06-26T07:24:41;10.65;;;6.57;;
28022;SDS011;67403;50.104;8.758;2023-06-26T07:27:09;11.60;;;6.68;;
28022;SDS011;67403;50.104;8.758;2023-06-26T07:29:37;8.10;;;6.60;;
28022;SDS011;67403;50.104;8.758;2023-06-26T07:32:05;9.90;;;6.65;;
28022;SDS011;67403;50.104;8.758;2023-06-26T07:34:32;12.27;;;6.93;;
28022;SDS011;67403;50.104;8.758;2023-06-26T07:36:59;9.00;;;6.28;;
28022;SDS011;67403;50.104;8.758;2023-06-26T07:39:26;10.68;;;6.47;;
28022;SDS011;67403;50.104;8.758;2023-06-26T07:41:54;9.25;;;6.57;;
28022;SDS011;67403;50.104;8.758;2023-06-26T07:44:23;7.95;;;6.43;;
28022;SDS011;67403;50.104;8.758;2023-06-26T07:46:52;11.18;;;7.13;;
28022;SDS011;67403;50.104;8.758;2023-06-26T07:49:19;12.10;;;6.50;;
28022;SDS011;67403;50.104;8.758;2023-06-26T07:51:46;11.30;;;6.97;;
28022;SDS011;67403;50.104;8.758;2023-06-26T07:54:13;10.05;;;6.70;;
28022;SDS011;67403;50.104;8.758;2023-06-26T07:56:53;9.25;;;6.15;;
28022;SDS011;67403;50.104;8.758;2023-06-26T07:59:21;9.63;;;6.75;;
28022;SDS011;67403;50.104;8.758;2023-06-26T08:01:49;10.10;;;7.10;;
28022;SDS011;67403;50.104;8.758;2023-06-26T08:04:19;9.02;;;7.15;;
28022;SDS011;67403;50.104;8.758;2023-06-26T08:06:47;9.13;;;6.60;;
28022;SDS011;67403;50.104;8.758;2023-06-26T08:09:14;14.25;;;6.78;;
28022;SDS011;67403;50.104;8.758;2023-06-26T08:11:42;9.05;;;5.82;;
28022;SDS011;67403;50.104;8.758;2023-06-26T08:14:09;10.38;;;6.82;;
28022;SDS011;67403;50.104;8.758;2023-06-26T08:16:38;8.07;;;6.05;;
28022;SDS011;67403;50.104;8.758;2023-06-26T08:19:05;9.68;;;6.95;;
28022;SDS011;67403;50.104;8.758;2023-06-26T08:21:34;8.75;;;6.47;;
28022;SDS011;67403;50.104;8.758;2023-06-26T08:24:01;10.30;;;6.63;;
28022;SDS011;67403;50.104;8.758;2023-06-26T08:26:28;9.48;;;6.72;;
28022;SDS011;67403;50.104;8.758;2023-06-26T08:28:55;8.25;;;5.82;;
28022;SDS011;67403;50.104;8.758;2023-06-26T08:31:23;8.15;;;5.85;;
28022;SDS011;67403;50.104;8.758;2023-06-26T08:33:50;9.15;;;6.20;;
28022;SDS011;67403;50.104;8.758;2023-06-26T08:36:17;9.13;;;6.03;;
28022;SDS011;67403;50.104;8.758;2023-06-26T08:38:46;8.20;;;6.18;;
28022;SDS011;67403;50.104;8.758;2023-06-26T08:41:13;7.75;;;6.30;;
28022;SDS011;67403;50.104;8.758;2023-06-26T08:43:40;6.22;;;5.53;;
28022;SDS011;67403;50.104;8.758;2023-06-26T08:46:08;8.77;;;6.40;;
28022;SDS011;67403;50.104;8.758;2023-06-26T08:48:35;10.60;;;7.25;;
28022;SDS011;67403;50.104;8.758;2023-06-26T08:51:04;9.30;;;6.63;;
28022;SDS011;67403;50.104;8.758;2023-06-26T08:53:33;8.88;;;6.35;;
28022;SDS011;67403;50.104;8.758;2023-06-26T08:56:06;10.20;;;6.43;;
28022;SDS011;67403;50.104;8.758;2023-06-26T08:58:34;8.77;;;5.85;;
28022;SDS011;67403;50.104;8.758;2023-06-26T09:01:03;10.73;;;8.73;;
28022;SDS011;67403;50.104;8.758;2023-06-26T09:03:31;11.15;;;7.47;;
28022;SDS011;67403;50.104;8.758;2023-06-26T09:05:59;9.07;;;6.63;;
28022;SDS011;67403;50.104;8.758;2023-06-26T09:08:26;7.22;;;5.90;;
28022;SDS011;67403;50.104;8.758;2023-06-26T09:10:53;11.07;;;6.57;;
28022;SDS011;67403;50.104;8.758;2023-06-26T09:13:22;8.57;;;6.22;;
28022;SDS011;67403;50.104;8.758;2023-06-26T09:15:50;8.35;;;6.53;;
28022;SDS011;67403;50.104;8.758;2023-06-26T09:18:20;11.60;;;6.68;;
28022;SDS011;67403;50.104;8.758;2023-06-26T09:20:47;10.52;;;6.50;;
28022;SDS011;67403;50.104;8.758;2023-06-26T09:23:14;10.68;;;6.78;;
28022;SDS011;67403;50.104;8.758;2023-06-26T09:25:42;10.10;;;6.90;;
28022;SDS011;67403;50.104;8.758;2023-06-26T09:28:09;9.35;;;5.82;;
28022;SDS011;67403;50.104;8.758;2023-06-26T09:30:38;9.45;;;5.97;;
28022;SDS011;67403;50.104;8.758;2023-06-26T09:33:15;7.50;;;5.95;;
28022;SDS011;67403;50.104;8.758;2023-06-26T09:35:43;9.38;;;6.45;;
28022;SDS011;67403;50.104;8.758;2023-06-26T09:38:10;10.20;;;6.28;;
28022;SDS011;67403;50.104;8.758;2023-06-26T09:40:38;7.75;;;5.65;;
28022;SDS011;67403;50.104;8.758;2023-06-26T09:43:05;7.00;;;5.40;;
28022;SDS011;67403;50.104;8.758;2023-06-26T09:45:33;9.18;;;6.57;;
28022;SDS011;67403;50.104;8.758;2023-06-26T09:48:03;10.85;;;5.68;;
28022;SDS011;67403;50.104;8.758;2023-06-26T09:50:30;10.63;;;5.97;;
28022;SDS011;67403;50.104;8.758;2023-06-26T09:53:04;7.57;;;5.90;;
28022;SDS011;67403;50.104;8.758;2023-06-26T09:55:34;8.07;;;5.95;;
28022;SDS011;67403;50.104;8.758;2023-06-26T09:58:01;7.63;;;5.82;;
28022;SDS011;67403;50.104;8.758;2023-06-26T10:00:29;7.95;;;5.82;;
28022;SDS011;67403;50.104;8.758;2023-06-26T10:02:57;6.35;;;5.45;;
28022;SDS011;67403;50.104;8.758;2023-06-26T10:05:25;8.23;;;5.72;;
28022;SDS011;67403;50.104;8.758;2023-06-26T10:07:52;9.10;;;6.57;;
28022;SDS011;67403;50.104;8.758;2023-06-26T10:10:21;8.25;;;6.43;;
28022;SDS011;67403;50.104;8.758;2023-06-26T10:12:51;10.15;;;5.43;;
28022;SDS011;67403;50.104;8.758;2023-06-26T10:15:20;8.10;;;5.03;;
28022;SDS011;67403;50.104;8.758;2023-06-26T10:17:48;8.07;;;5.45;;
28022;SDS011;67403;50.104;8.758;2023-06-26T10:20:16;8.57;;;5.68;;
28022;SDS011;67403;50.104;8.758;2023-06-26T10:22:45;6.75;;;5.28;;
28022;SDS011;67403;50.104;8.758;2023-06-26T10:25:14;7.43;;;5.43;;
28022;SDS011;67403;50.104;8.758;2023-06-26T10:27:45;8.20;;;5.60;;
28022;SDS011;67403;50.104;8.758;2023-06-26T10:30:16;8.05;;;5.18;;
28022;SDS011;67403;50.104;8.758;2023-06-26T10:32:44;8.40;;;5.75;;
28022;SDS011;67403;50.104;8.758;2023-06-26T10:35:12;7.18;;;6.07;;
28022;SDS011;67403;50.104;8.758;2023-06-26T10:37:40;7.03;;;5.57;;
28022;SDS011;67403;50.104;8.758;2023-06-26T10:40:10;8.98;;;5.53;;
28022;SDS011;67403;50.104;8.758;2023-06-26T10:42:38;6.20;;;5.07;;
28022;SDS011;67403;50.104;8.758;2023-06-26T10:45:09;6.70;;;5.28;;
28022;SDS011;67403;50.104;8.758;2023-06-26T10:47:37;7.30;;;5.20;;
28022;SDS011;67403;50.104;8.758;2023-06-26T10:50:16;7.60;;;5.45;;
28022;SDS011;67403;50.104;8.758;2023-06-26T10:52:43;5.60;;;4.72;;
28022;SDS011;67403;50.104;8.758;2023-06-26T10:55:12;7.43;;;5.15;;
28022;SDS011;67403;50.104;8.758;2023-06-26T10:57:44;5.53;;;4.88;;
28022;SDS011;67403;50.104;8.758;2023-06-26T11:00:13;5.50;;;4.63;;
28022;SDS011;67403;50.104;8.758;2023-06-26T11:02:47;7.43;;;4.88;;
28022;SDS011;67403;50.104;8.758;2023-06-26T11:05:23;6.85;;;4.60;;
28022;SDS011;67403;50.104;8.758;2023-06-26T11:08:03;5.25;;;4.03;;
28022;SDS011;67403;50.104;8.758;2023-06-26T11:13:14;6.18;;;5.18;;
28022;SDS011;67403;50.104;8.758;2023-06-26T11:15:43;7.05;;;4.82;;
28022;SDS011;67403;50.104;8.758;2023-06-26T11:18:11;6.63;;;4.70;;
28022;SDS011;67403;50.104;8.758;2023-06-26T11:20:39;5.25;;;4.22;;
28022;SDS011;67403;50.104;8.758;2023-06-26T11:23:06;7.25;;;5.18;;
28022;SDS011;67403;50.104;8.758;2023-06-26T11:25:34;6.60;;;4.85;;
28022;SDS011;67403;50.104;8.758;2023-06-26T11:28:02;7.57;;;5.10;;
28022;SDS011;67403;50.104;8.758;2023-06-26T11:30:31;7.35;;;5.50;;
28022;SDS011;67403;50.104;8.758;2023-06-26T11:33:04;7.28;;;4.72;;
28022;SDS011;67403;50.104;8.758;2023-06-26T11:35:32;7.18;;;5.03;;
28022;SDS011;67403;50.104;8.758;2023-06-26T11:37:59;5.95;;;4.60;;
28022;SDS011;67403;50.104;8.758;2023-06-26T11:40:30;6.57;;;4.70;;
28022;SDS011;67403;50.104;8.758;2023-06-26T11:42:58;5.72;;;4.60;;
28022;SDS011;67403;50.104;8.758;2023-06-26T11:45:27;5.18;;;4.65;;
28022;SDS011;67403;50.104;8.758;2023-06-26T11:47:57;6.55;;;4.88;;
28022;SDS011;67403;50.104;8.758;2023-06-26T11:50:24;7.47;;;4.97;;
28022;SDS011;67403;50.104;8.758;2023-06-26T11:52:55;5.43;;;4.45;;
28022;SDS011;67403;50.104;8.758;2023-06-26T11:55:22;9.63;;;5.47;;
28022;SDS011;67403;50.104;8.758;2023-06-26T11:57:50;7.18;;;5.22;;
28022;SDS011;67403;50.104;8.758;2023-06-26T12:00:17;6.55;;;4.75;;
28022;SDS011;67403;50.104;8.758;2023-06-26T12:02:44;6.00;;;4.72;;
28022;SDS011;67403;50.104;8.758;2023-06-26T12:05:13;5.93;;;4.95;;
28022;SDS011;67403;50.104;8.758;2023-06-26T12:07:41;6.35;;;4.95;;
28022;SDS011;67403;50.104;8.758;2023-06-26T12:10:09;6.57;;;4.97;;
28022;SDS011;67403;50.104;8.758;2023-06-26T12:12:38;6.97;;;4.88;;
28022;SDS011;67403;50.104;8.758;2023-06-26T12:15:05;5.32;;;4.68;;
28022;SDS011;67403;50.104;8.758;2023-06-26T12:17:33;7.83;;;4.93;;
28022;SDS011;67403;50.104;8.758;2023-06-26T12:20:05;5.55;;;4.95;;
28022;SDS011;67403;50.104;8.758;2023-06-26T12:22:36;6.65;;;4.70;;
28022;SDS011;67403;50.104;8.758;2023-06-26T12:25:04;7.60;;;5.53;;
28022;SDS011;67403;50.104;8.758;2023-06-26T12:27:35;5.10;;;4.60;;
28022;SDS011;67403;50.104;8.758;2023-06-26T12:30:03;7.28;;;5.07;;
28022;SDS011;67403;50.104;8.758;2023-06-26T12:32:30;8.60;;;5.40;;
28022;SDS011;67403;50.104;8.758;2023-06-26T12:34:58;5.97;;;4.93;;
28022;SDS011;67403;50.104;8.758;2023-06-26T12:37:25;5.88;;;5.15;;
28022;SDS011;67403;50.104;8.758;2023-06-26T12:39:54;7.50;;;5.60;;
28022;SDS011;67403;50.104;8.758;2023-06-26T12:42:23;7.18;;;4.88;;
28022;SDS011;67403;50.104;8.758;2023-06-26T12:44:50;7.32;;;5.60;;
28022;SDS011;67403;50.104;8.758;2023-06-26T12:47:19;7.57;;;4.28;;
28022;SDS011;67403;50.104;8.758;2023-06-26T12:49:49;5.68;;;4.75;;
28022;SDS011;67403;50.104;8.758;2023-06-26T12:52:17;7.30;;;4.93;;
28022;SDS011;67403;50.104;8.758;2023-06-26T12:54:45;6.18;;;4.70;;
28022;SDS011;67403;50.104;8.758;2023-06-26T12:57:14;8.00;;;5.43;;
28022;SDS011;67403;50.104;8.758;2023-06-26T12:59:41;8.05;;;4.78;;
28022;SDS011;67403;50.104;8.758;2023-06-26T13:02:09;7.50;;;5.43;;
28022;SDS011;67403;50.104;8.758;2023-06-26T13:04:37;7.55;;;5.15;;
28022;SDS011;67403;50.104;8.758;2023-06-26T13:07:06;8.70;;;5.13;;
28022;SDS011;67403;50.104;8.758;2023-06-26T13:09:33;9.57;;;4.88;;
28022;SDS011;67403;50.104;8.758;2023-06-26T13:12:02;8.30;;;4.57;;
28022;SDS011;67403;50.104;8.758;2023-06-26T13:14:31;7.60;;;4.82;;
28022;SDS011;67403;50.104;8.758;2023-06-26T13:16:58;8.75;;;6.05;;
28022;SDS011;67403;50.104;8.758;2023-06-26T13:19:26;8.35;;;5.88;;
28022;SDS011;67403;50.104;8.758;2023-06-26T13:21:53;7.15;;;5.32;;
28022;SDS011;67403;50.104;8.758;2023-06-26T13:24:20;6.82;;;4.68;;
28022;SDS011;67403;50.104;8.758;2023-06-26T13:26:49;5.47;;;4.57;;
28022;SDS011;67403;50.104;8.758;2023-06-26T13:29:17;9.50;;;4.78;;
28022;SDS011;67403;50.104;8.758;2023-06-26T13:31:45;7.13;;;5.22;;
28022;SDS011;67403;50.104;8.758;2023-06-26T13:34:20;6.90;;;4.47;;
28022;SDS011;67403;50.104;8.758;2023-06-26T13:36:48;10.45;;;4.88;;
28022;SDS011;67403;50.104;8.758;2023-06-26T13:39:15;7.43;;;5.25;;
28022;SDS011;67403;50.104;8.758;2023-06-26T13:41:42;8.70;;;5.82;;
28022;SDS011;67403;50.104;8.758;2023-06-26T13:44:09;7.68;;;4.60;;
28022;SDS011;67403;50.104;8.758;2023-06-26T13:46:37;7.63;;;4.88;;
28022;SDS011;67403;50.104;8.758;2023-06-26T13:49:05;7.15;;;4.20;;
28022;SDS011;67403;50.104;8.758;2023-06-26T13:51:33;6.37;;;4.27;;
28022;SDS011;67403;50.104;8.758;2023-06-26T13:54:00;5.30;;;4.25;;
28022;SDS011;67403;50.104;8.758;2023-06-26T13:56:27;5.03;;;4.20;;
28022;SDS011;67403;50.104;8.758;2023-06-26T13:58:55;4.03;;;3.53;;
28022;SDS011;67403;50.104;8.758;2023-06-26T14:01:23;6.20;;;4.43;;
28022;SDS011;67403;50.104;8.758;2023-06-26T14:03:51;4.65;;;3.80;;
28022;SDS011;67403;50.104;8.758;2023-06-26T14:06:19;7.07;;;3.63;;
28022;SDS011;67403;50.104;8.758;2023-06-26T14:08:46;3.30;;;3.00;;
28022;SDS011;67403;50.104;8.758;2023-06-26T14:11:14;4.47;;;3.38;;
28022;SDS011;67403;50.104;8.758;2023-06-26T14:13:42;6.70;;;4.30;;
28022;SDS011;67403;50.104;8.758;2023-06-26T14:16:09;5.93;;;3.58;;
28022;SDS011;67403;50.104;8.758;2023-06-26T14:18:37;6.65;;;3.63;;
28022;SDS011;67403;50.104;8.758;2023-06-26T14:21:04;10.95;;;3.80;;
28022;SDS011;67403;50.104;8.758;2023-06-26T14:23:33;4.03;;;3.22;;
28022;SDS011;67403;50.104;8.758;2023-06-26T14:26:00;4.30;;;3.17;;
28022;SDS011;67403;50.104;8.758;2023-06-26T14:28:27;12.18;;;3.17;;
28022;SDS011;67403;50.104;8.758;2023-06-26T14:30:55;5.57;;;2.88;;
28022;SDS011;67403;50.104;8.758;2023-06-26T14:33:22;4.45;;;3.20;;
28022;SDS011;67403;50.104;8.758;2023-06-26T14:35:49;7.30;;;3.28;;
28022;SDS011;67403;50.104;8.758;2023-06-26T14:38:16;6.75;;;3.35;;
28022;SDS011;67403;50.104;8.758;2023-06-26T14:40:45;4.00;;;3.40;;
28022;SDS011;67403;50.104;8.758;2023-06-26T14:43:12;5.70;;;2.67;;
28022;SDS011;67403;50.104;8.758;2023-06-26T14:45:40;3.92;;;2.85;;
28022;SDS011;67403;50.104;8.758;2023-06-26T14:48:07;4.53;;;2.75;;
28022;SDS011;67403;50.104;8.758;2023-06-26T14:50:34;3.63;;;2.72;;
28022;SDS011;67403;50.104;8.758;2023-06-26T14:53:01;5.38;;;2.58;;